sensor_id;sensor_type;location;lat;lon;timestamp;pressure;altitude;pressure_sealevel;temperature;humidity
7052;BME280;3567;52.444;13.556;2022-12-07T00:01:24;100876.94;;;2.31;100.00
7052;BME280;3567;52.444;13.556;2022-12-07T00:03:52;100879.56;;;2.31;100.00
7052;BME280;3567;52.444;13.556;2022-12-07T00:06:18;100876.94;;;2.23;100.00
7052;BME280;3567;52.444;13.556;2022-12-07T00:08:44;100874.34;;;2.15;100.00
7052;BME280;3567;52.444;13.556;2022-12-07T00:11:15;100873.66;;;2.13;100.00
7052;BME280;3567;52.444;13.556;2022-12-07T00:13:42;100877.50;;;2.10;100.00
7052;BME280;3567;52.444;13.556;2022-12-07T00:16:16;100864.78;;;2.05;100.00
7052;BME280;3567;52.444;13.556;2022-12-07T00:18:42;100866.78;;;2.03;100.00
7052;BME280;3567;52.444;13.556;2022-12-07T00:21:28;100861.81;;;2.00;100.00
7052;BME280;3567;52.444;13.556;2022-12-07T00:23:55;100870.41;;;2.02;100.00
7052;BME280;3567;52.444;13.556;2022-12-07T00:26:29;100858.69;;;1.97;100.00
7052;BME280;3567;52.444;13.556;2022-12-07T00:28:57;100859.88;;;1.94;100.00
7052;BME280;3567;52.444;13.556;2022-12-07T00:31:28;100865.16;;;1.94;100.00
7052;BME280;3567;52.444;13.556;2022-12-07T00:33:54;100863.50;;;1.93;100.00
7052;BME280;3567;52.444;13.556;2022-12-07T00:36:23;100864.50;;;1.84;100.00
7052;BME280;3567;52.444;13.556;2022-12-07T00:38:49;100866.50;;;1.82;100.00
7052;BME280;3567;52.444;13.556;2022-12-07T00:41:16;100858.41;;;1.83;100.00
7052;BME280;3567;52.444;13.556;2022-12-07T00:43:43;100855.75;;;1.83;100.00
7052;BME280;3567;52.444;13.556;2022-12-07T00:46:10;100843.56;;;1.82;100.00
7052;BME280;3567;52.444;13.556;2022-12-07T00:48:35;100853.63;;;1.79;100.00
7052;BME280;3567;52.444;13.556;2022-12-07T00:51:01;100845.38;;;1.74;100.00
7052;BME280;3567;52.444;13.556;2022-12-07T00:53:27;100848.84;;;1.74;100.00
7052;BME280;3567;52.444;13.556;2022-12-07T00:55:53;100844.72;;;1.72;100.00
7052;BME280;3567;52.444;13.556;2022-12-07T00:58:19;100844.41;;;1.67;100.00
7052;BME280;3567;52.444;13.556;2022-12-07T01:00:45;100842.44;;;1.61;100.00
7052;BME280;3567;52.444;13.556;2022-12-07T01:03:12;100836.84;;;1.55;100.00
7052;BME280;3567;52.444;13.556;2022-12-07T01:05:38;100831.06;;;1.52;100.00
7052;BME280;3567;52.444;13.556;2022-12-07T01:08:04;100829.91;;;1.46;100.00
7052;BME280;3567;52.444;13.556;2022-12-07T01:10:29;100839.16;;;1.42;100.00
7052;BME280;3567;52.444;13.556;2022-12-07T01:12:57;100843.09;;;1.38;100.00
7052;BME280;3567;52.444;13.556;2022-12-07T01:15:24;100836.53;;;1.34;100.00
7052;BME280;3567;52.444;13.556;2022-12-07T01:17:49;100834.38;;;1.29;100.00
7052;BME280;3567;52.444;13.556;2022-12-07T01:20:15;100831.41;;;1.24;100.00
7052;BME280;3567;52.444;13.556;2022-12-07T01:22:42;100833.38;;;1.22;100.00
7052;BME280;3567;52.444;13.556;2022-12-07T01:25:09;100827.28;;;1.22;100.00
7052;BME280;3567;52.444;13.556;2022-12-07T01:27:35;100837.00;;;1.21;100.00
7052;BME280;3567;52.444;13.556;2022-12-07T01:30:01;100824.97;;;1.19;100.00
7052;BME280;3567;52.444;13.556;2022-12-07T01:32:27;100821.34;;;1.20;100.00
7052;BME280;3567;52.444;13.556;2022-12-07T01:34:52;100819.34;;;1.22;100.00
7052;BME280;3567;52.444;13.556;2022-12-07T01:37:18;100815.56;;;1.24;100.00
7052;BME280;3567;52.444;13.556;2022-12-07T01:39:43;100818.03;;;1.26;100.00
7052;BME280;3567;52.444;13.556;2022-12-07T01:42:12;100810.81;;;1.28;100.00
7052;BME280;3567;52.444;13.556;2022-12-07T01:47:41;100809.47;;;1.32;100.00
7052;BME280;3567;52.444;13.556;2022-12-07T01:50:09;100808.47;;;1.33;100.00
7052;BME280;3567;52.444;13.556;2022-12-07T01:52:36;100809.97;;;1.36;100.00
7052;BME280;3567;52.444;13.556;2022-12-07T01:55:09;100809.78;;;1.37;100.00
7052;BME280;3567;52.444;13.556;2022-12-07T01:57:40;100803.50;;;1.38;100.00
7052;BME280;3567;52.444;13.556;2022-12-07T02:00:07;100797.25;;;1.39;100.00
7052;BME280;3567;52.444;13.556;2022-12-07T02:02:44;100792.00;;;1.39;100.00
7052;BME280;3567;52.444;13.556;2022-12-07T02:05:11;100787.69;;;1.38;100.00
7052;BME280;3567;52.444;13.556;2022-12-07T02:07:37;100790.00;;;1.41;100.00
7052;BME280;3567;52.444;13.556;2022-12-07T02:10:20;100787.19;;;1.43;100.00
7052;BME280;3567;52.444;13.556;2022-12-07T02:12:49;100783.72;;;1.42;100.00
7052;BME280;3567;52.444;13.556;2022-12-07T02:15:15;100786.34;;;1.42;100.00
7052;BME280;3567;52.444;13.556;2022-12-07T02:17:59;100790.00;;;1.41;100.00
7052;BME280;3567;52.444;13.556;2022-12-07T02:20:39;100784.38;;;1.44;100.00
7052;BME280;3567;52.444;13.556;2022-12-07T02:29:17;100780.41;;;1.48;100.00
7052;BME280;3567;52.444;13.556;2022-12-07T02:32:14;100774.31;;;1.48;100.00
7052;BME280;3567;52.444;13.556;2022-12-07T02:34:47;100774.66;;;1.45;100.00
7052;BME280;3567;52.444;13.556;2022-12-07T02:40:11;100777.66;;;1.34;100.00
7052;BME280;3567;52.444;13.556;2022-12-07T02:42:45;100770.88;;;1.31;100.00
7052;BME280;3567;52.444;13.556;2022-12-07T02:45:14;100773.53;;;1.23;100.00
7052;BME280;3567;52.444;13.556;2022-12-07T02:47:43;100760.34;;;1.23;100.00
7052;BME280;3567;52.444;13.556;2022-12-07T02:50:09;100752.94;;;1.18;100.00
7052;BME280;3567;52.444;13.556;2022-12-07T02:52:35;100755.72;;;1.17;100.00
7052;BME280;3567;52.444;13.556;2022-12-07T02:55:01;100755.88;;;1.15;100.00
7052;BME280;3567;52.444;13.556;2022-12-07T03:00:09;100753.59;;;1.12;100.00
7052;BME280;3567;52.444;13.556;2022-12-07T03:08:01;100742.22;;;1.03;100.00
7052;BME280;3567;52.444;13.556;2022-12-07T03:15:46;100735.47;;;0.93;100.00
7052;BME280;3567;52.444;13.556;2022-12-07T03:18:18;100735.63;;;0.91;100.00
7052;BME280;3567;52.444;13.556;2022-12-07T03:20:46;100732.00;;;0.92;100.00
7052;BME280;3567;52.444;13.556;2022-12-07T03:23:14;100727.72;;;0.91;100.00
7052;BME280;3567;52.444;13.556;2022-12-07T03:25:47;100718.13;;;0.90;100.00
7052;BME280;3567;52.444;13.556;2022-12-07T03:28:16;100710.56;;;0.87;100.00
7052;BME280;3567;52.444;13.556;2022-12-07T03:30:47;100704.00;;;0.91;100.00
7052;BME280;3567;52.444;13.556;2022-12-07T03:33:20;100703.16;;;0.91;100.00
7052;BME280;3567;52.444;13.556;2022-12-07T03:36:21;100704.81;;;0.92;100.00
7052;BME280;3567;52.444;13.556;2022-12-07T03:38:57;100695.91;;;0.93;100.00
7052;BME280;3567;52.444;13.556;2022-12-07T03:41:26;100689.81;;;0.92;100.00
7052;BME280;3567;52.444;13.556;2022-12-07T03:43:54;100692.44;;;0.92;100.00
7052;BME280;3567;52.444;13.556;2022-12-07T03:46:31;100682.22;;;0.89;100.00
7052;BME280;3567;52.444;13.556;2022-12-07T03:49:04;100676.28;;;0.87;100.00
7052;BME280;3567;52.444;13.556;2022-12-07T03:51:40;100671.03;;;0.87;100.00
7052;BME280;3567;52.444;13.556;2022-12-07T03:54:18;100665.75;;;0.87;100.00
7052;BME280;3567;52.444;13.556;2022-12-07T03:56:45;100647.94;;;0.89;100.00
7052;BME280;3567;52.444;13.556;2022-12-07T03:59:12;100653.06;;;0.91;100.00
7052;BME280;3567;52.444;13.556;2022-12-07T04:01:42;100652.88;;;0.92;100.00
7052;BME280;3567;52.444;13.556;2022-12-07T04:04:07;100640.53;;;0.93;100.00
7052;BME280;3567;52.444;13.556;2022-12-07T04:06:32;100642.34;;;0.92;100.00
7052;BME280;3567;52.444;13.556;2022-12-07T04:08:58;100631.59;;;0.94;100.00
7052;BME280;3567;52.444;13.556;2022-12-07T04:11:23;100630.78;;;0.93;100.00
7052;BME280;3567;52.444;13.556;2022-12-07T04:13:48;100626.16;;;0.95;100.00
7052;BME280;3567;52.444;13.556;2022-12-07T04:16:32;100633.09;;;0.96;100.00
7052;BME280;3567;52.444;13.556;2022-12-07T04:18:58;100635.38;;;0.99;100.00
7052;BME280;3567;52.444;13.556;2022-12-07T04:21:23;100637.03;;;1.00;100.00
7052;BME280;3567;52.444;13.556;2022-12-07T04:23:49;100632.25;;;0.96;100.00
7052;BME280;3567;52.444;13.556;2022-12-07T04:26:14;100627.84;;;0.96;100.00
7052;BME280;3567;52.444;13.556;2022-12-07T04:28:39;100625.34;;;0.95;100.00
7052;BME280;3567;52.444;13.556;2022-12-07T04:31:05;100632.59;;;0.93;100.00
7052;BME280;3567;52.444;13.556;2022-12-07T04:33:30;100624.88;;;0.91;100.00
7052;BME280;3567;52.444;13.556;2022-12-07T04:35:55;100624.38;;;0.88;100.00
7052;BME280;3567;52.444;13.556;2022-12-07T04:38:20;100613.34;;;0.84;100.00
7052;BME280;3567;52.444;13.556;2022-12-07T04:40:46;100608.72;;;0.78;100.00
7052;BME280;3567;52.444;13.556;2022-12-07T04:43:11;100610.38;;;0.79;100.00
7052;BME280;3567;52.444;13.556;2022-12-07T04:45:36;100607.91;;;0.77;100.00
7052;BME280;3567;52.444;13.556;2022-12-07T04:48:02;100601.81;;;0.77;100.00
7052;BME280;3567;52.444;13.556;2022-12-07T04:50:27;100608.72;;;0.78;100.00
7052;BME280;3567;52.444;13.556;2022-12-07T04:52:52;100600.00;;;0.77;100.00
7052;BME280;3567;52.444;13.556;2022-12-07T04:55:18;100594.56;;;0.79;100.00
7052;BME280;3567;52.444;13.556;2022-12-07T04:57:43;100596.88;;;0.82;100.00
7052;BME280;3567;52.444;13.556;2022-12-07T05:00:09;100596.69;;;0.84;100.00
7052;BME280;3567;52.444;13.556;2022-12-07T05:02:34;100578.91;;;0.86;100.00
7052;BME280;3567;52.444;13.556;2022-12-07T05:05:00;100584.00;;;0.87;100.00
7052;BME280;3567;52.444;13.556;2022-12-07T05:07:25;100585.47;;;0.90;100.00
7052;BME280;3567;52.444;13.556;2022-12-07T05:09:50;100581.84;;;0.91;100.00
7052;BME280;3567;52.444;13.556;2022-12-07T05:12:16;100578.03;;;0.93;100.00
7052;BME280;3567;52.444;13.556;2022-12-07T05:14:41;100578.69;;;0.95;100.00
7052;BME280;3567;52.444;13.556;2022-12-07T05:17:06;100581.31;;;0.95;100.00
7052;BME280;3567;52.444;13.556;2022-12-07T05:19:32;100581.19;;;0.97;100.00
7052;BME280;3567;52.444;13.556;2022-12-07T05:21:57;100580.34;;;0.96;100.00
7052;BME280;3567;52.444;13.556;2022-12-07T05:24:22;100574.09;;;0.97;100.00
7052;BME280;3567;52.444;13.556;2022-12-07T05:26:48;100574.41;;;1.02;100.00
7052;BME280;3567;52.444;13.556;2022-12-07T05:29:15;100576.69;;;1.05;100.00
7052;BME280;3567;52.444;13.556;2022-12-07T05:31:41;100566.78;;;1.08;100.00
7052;BME280;3567;52.444;13.556;2022-12-07T05:34:06;100563.16;;;1.09;100.00
7052;BME280;3567;52.444;13.556;2022-12-07T05:36:32;100558.84;;;1.16;100.00
7052;BME280;3567;52.444;13.556;2022-12-07T05:38:57;100562.13;;;1.18;100.00
7052;BME280;3567;52.444;13.556;2022-12-07T05:41:23;100564.25;;;1.22;100.00
7052;BME280;3567;52.444;13.556;2022-12-07T05:44:07;100562.91;;;1.26;100.00
7052;BME280;3567;52.444;13.556;2022-12-07T05:46:33;100558.75;;;1.32;100.00
7052;BME280;3567;52.444;13.556;2022-12-07T05:48:58;100552.31;;;1.35;100.00
7052;BME280;3567;52.444;13.556;2022-12-07T05:51:24;100547.88;;;1.35;100.00
7052;BME280;3567;52.444;13.556;2022-12-07T05:53:49;100544.88;;;1.38;100.00
7052;BME280;3567;52.444;13.556;2022-12-07T05:56:14;100553.44;;;1.40;100.00
7052;BME280;3567;52.444;13.556;2022-12-07T05:58:40;100555.72;;;1.43;100.00
7052;BME280;3567;52.444;13.556;2022-12-07T06:01:24;100546.84;;;1.44;100.00
7052;BME280;3567;52.444;13.556;2022-12-07T06:03:49;100544.84;;;1.46;100.00
7052;BME280;3567;52.444;13.556;2022-12-07T06:06:15;100548.13;;;1.48;100.00
7052;BME280;3567;52.444;13.556;2022-12-07T06:08:40;100553.25;;;1.50;100.00
7052;BME280;3567;52.444;13.556;2022-12-07T06:11:06;100540.69;;;1.52;100.00
7052;BME280;3567;52.444;13.556;2022-12-07T06:13:50;100536.84;;;1.54;100.00
7052;BME280;3567;52.444;13.556;2022-12-07T06:16:15;100524.31;;;1.56;100.00
7052;BME280;3567;52.444;13.556;2022-12-07T06:18:40;100519.66;;;1.58;100.00
7052;BME280;3567;52.444;13.556;2022-12-07T06:21:06;100518.34;;;1.63;100.00
7052;BME280;3567;52.444;13.556;2022-12-07T06:23:31;100518.97;;;1.65;100.00
7052;BME280;3567;52.444;13.556;2022-12-07T06:25:56;100513.16;;;1.69;100.00
7052;BME280;3567;52.444;13.556;2022-12-07T06:28:21;100509.53;;;1.70;100.00
7052;BME280;3567;52.444;13.556;2022-12-07T06:30:47;100509.19;;;1.73;100.00
7052;BME280;3567;52.444;13.556;2022-12-07T06:33:12;100513.31;;;1.76;100.00
7052;BME280;3567;52.444;13.556;2022-12-07T06:35:38;100513.94;;;1.78;100.00
7052;BME280;3567;52.444;13.556;2022-12-07T06:38:03;100505.66;;;1.81;100.00
7052;BME280;3567;52.444;13.556;2022-12-07T06:40:28;100507.31;;;1.82;100.00
7052;BME280;3567;52.444;13.556;2022-12-07T06:42:54;100510.28;;;1.79;100.00
7052;BME280;3567;52.444;13.556;2022-12-07T06:45:19;100509.28;;;1.80;100.00
7052;BME280;3567;52.444;13.556;2022-12-07T06:47:44;100510.78;;;1.82;100.00
7052;BME280;3567;52.444;13.556;2022-12-07T06:50:10;100508.94;;;1.83;100.00
7052;BME280;3567;52.444;13.556;2022-12-07T06:52:35;100511.41;;;1.84;100.00
7052;BME280;3567;52.444;13.556;2022-12-07T06:55:00;100513.22;;;1.84;100.00
7052;BME280;3567;52.444;13.556;2022-12-07T06:57:26;100509.25;;;1.88;100.00
7052;BME280;3567;52.444;13.556;2022-12-07T06:59:51;100506.22;;;1.91;100.00
7052;BME280;3567;52.444;13.556;2022-12-07T07:02:17;100518.47;;;1.92;100.00
7052;BME280;3567;52.444;13.556;2022-12-07T07:04:43;100505.25;;;1.92;100.00
7052;BME280;3567;52.444;13.556;2022-12-07T07:07:08;100502.06;;;1.97;100.00
7052;BME280;3567;52.444;13.556;2022-12-07T07:09:33;100501.91;;;1.98;100.00
7052;BME280;3567;52.444;13.556;2022-12-07T07:11:59;100508.44;;;2.02;100.00
7052;BME280;3567;52.444;13.556;2022-12-07T07:14:24;100507.09;;;2.06;100.00
7052;BME280;3567;52.444;13.556;2022-12-07T07:16:49;100513.84;;;2.09;100.00
7052;BME280;3567;52.444;13.556;2022-12-07T07:19:15;100503.91;;;2.11;100.00
7052;BME280;3567;52.444;13.556;2022-12-07T07:21:40;100515.16;;;2.13;100.00
7052;BME280;3567;52.444;13.556;2022-12-07T07:24:06;100503.19;;;2.17;100.00
7052;BME280;3567;52.444;13.556;2022-12-07T07:26:31;100512.41;;;2.21;100.00
7052;BME280;3567;52.444;13.556;2022-12-07T07:28:56;100506.78;;;2.24;100.00
7052;BME280;3567;52.444;13.556;2022-12-07T07:31:22;100501.13;;;2.27;100.00
7052;BME280;3567;52.444;13.556;2022-12-07T07:33:47;100506.88;;;2.31;100.00
7052;BME280;3567;52.444;13.556;2022-12-07T07:36:12;100506.34;;;2.35;100.00
7052;BME280;3567;52.444;13.556;2022-12-07T07:38:38;100504.13;;;2.39;100.00
7052;BME280;3567;52.444;13.556;2022-12-07T07:41:04;100503.78;;;2.42;100.00
7052;BME280;3567;52.444;13.556;2022-12-07T07:43:29;100499.78;;;2.46;100.00
7052;BME280;3567;52.444;13.556;2022-12-07T07:45:55;100503.88;;;2.49;100.00
7052;BME280;3567;52.444;13.556;2022-12-07T07:48:20;100504.34;;;2.52;100.00
7052;BME280;3567;52.444;13.556;2022-12-07T07:50:47;100505.97;;;2.53;100.00
7052;BME280;3567;52.444;13.556;2022-12-07T07:53:13;100503.53;;;2.52;100.00
7052;BME280;3567;52.444;13.556;2022-12-07T07:55:38;100495.69;;;2.58;100.00
7052;BME280;3567;52.444;13.556;2022-12-07T07:58:03;100505.72;;;2.63;100.00
7052;BME280;3567;52.444;13.556;2022-12-07T08:00:29;100501.25;;;2.63;100.00
7052;BME280;3567;52.444;13.556;2022-12-07T08:02:54;100504.53;;;2.66;100.00
7052;BME280;3567;52.444;13.556;2022-12-07T08:05:19;100509.47;;;2.69;100.00
7052;BME280;3567;52.444;13.556;2022-12-07T08:07:45;100503.44;;;2.75;100.00
7052;BME280;3567;52.444;13.556;2022-12-07T08:10:12;100498.59;;;2.78;100.00
7052;BME280;3567;52.444;13.556;2022-12-07T08:12:39;100506.00;;;2.83;100.00
7052;BME280;3567;52.444;13.556;2022-12-07T08:15:26;100496.50;;;2.88;100.00
7052;BME280;3567;52.444;13.556;2022-12-07T08:17:52;100505.63;;;2.86;100.00
7052;BME280;3567;52.444;13.556;2022-12-07T08:20:17;100512.19;;;2.90;100.00
7052;BME280;3567;52.444;13.556;2022-12-07T08:22:42;100519.09;;;2.91;100.00
7052;BME280;3567;52.444;13.556;2022-12-07T08:25:08;100518.47;;;2.89;100.00
7052;BME280;3567;52.444;13.556;2022-12-07T08:27:33;100512.19;;;2.90;100.00
7052;BME280;3567;52.444;13.556;2022-12-07T08:29:58;100513.00;;;2.91;100.00
7052;BME280;3567;52.444;13.556;2022-12-07T08:32:24;100504.88;;;2.92;100.00
7052;BME280;3567;52.444;13.556;2022-12-07T08:34:49;100506.91;;;2.90;100.00
7052;BME280;3567;52.444;13.556;2022-12-07T08:37:15;100516.28;;;2.93;100.00
7052;BME280;3567;52.444;13.556;2022-12-07T08:39:40;100506.53;;;2.93;100.00
7052;BME280;3567;52.444;13.556;2022-12-07T08:42:05;100508.78;;;2.96;100.00
7052;BME280;3567;52.444;13.556;2022-12-07T08:44:31;100518.75;;;2.94;100.00
7052;BME280;3567;52.444;13.556;2022-12-07T08:46:59;100519.94;;;2.92;100.00
7052;BME280;3567;52.444;13.556;2022-12-07T08:49:28;100519.75;;;2.93;100.00
7052;BME280;3567;52.444;13.556;2022-12-07T08:51:57;100511.44;;;2.96;100.00
7052;BME280;3567;52.444;13.556;2022-12-07T08:54:22;100519.03;;;2.99;100.00
7052;BME280;3567;52.444;13.556;2022-12-07T08:56:48;100528.13;;;2.97;100.00
7052;BME280;3567;52.444;13.556;2022-12-07T08:59:17;100533.44;;;2.97;100.00
7052;BME280;3567;52.444;13.556;2022-12-07T09:01:43;100538.28;;;2.93;100.00
7052;BME280;3567;52.444;13.556;2022-12-07T09:04:08;100535.81;;;2.92;100.00
7052;BME280;3567;52.444;13.556;2022-12-07T09:06:33;100540.28;;;2.91;100.00
7052;BME280;3567;52.444;13.556;2022-12-07T09:09:01;100536.53;;;2.85;100.00
7052;BME280;3567;52.444;13.556;2022-12-07T09:11:26;100534.16;;;2.91;100.00
7052;BME280;3567;52.444;13.556;2022-12-07T09:13:52;100543.00;;;2.98;100.00
7052;BME280;3567;52.444;13.556;2022-12-07T09:16:17;100546.84;;;2.95;100.00
7052;BME280;3567;52.444;13.556;2022-12-07T09:18:43;100548.47;;;2.96;100.00
7052;BME280;3567;52.444;13.556;2022-12-07T09:21:08;100544.41;;;2.94;100.00
7052;BME280;3567;52.444;13.556;2022-12-07T09:23:34;100567.13;;;2.88;100.00
7052;BME280;3567;52.444;13.556;2022-12-07T09:26:02;100559.81;;;2.90;100.00
7052;BME280;3567;52.444;13.556;2022-12-07T09:28:30;100560.16;;;2.87;100.00
7052;BME280;3567;52.444;13.556;2022-12-07T09:30:55;100565.44;;;2.87;100.00
7052;BME280;3567;52.444;13.556;2022-12-07T09:33:21;100565.44;;;2.87;100.00
7052;BME280;3567;52.444;13.556;2022-12-07T09:35:47;100554.44;;;2.83;100.00
7052;BME280;3567;52.444;13.556;2022-12-07T09:38:14;100558.53;;;2.86;100.00
7052;BME280;3567;52.444;13.556;2022-12-07T09:40:40;100562.81;;;2.87;100.00
7052;BME280;3567;52.444;13.556;2022-12-07T09:43:21;100559.72;;;2.83;100.00
7052;BME280;3567;52.444;13.556;2022-12-07T09:45:52;100561.16;;;2.86;100.00
7052;BME280;3567;52.444;13.556;2022-12-07T09:48:39;100558.53;;;2.86;100.00
7052;BME280;3567;52.444;13.556;2022-12-07T09:51:20;100569.56;;;2.89;100.00
7052;BME280;3567;52.444;13.556;2022-12-07T09:53:47;100575.59;;;2.83;100.00
7052;BME280;3567;52.444;13.556;2022-12-07T09:56:15;100572.56;;;2.86;100.00
7052;BME280;3567;52.444;13.556;2022-12-07T09:58:41;100579.69;;;2.86;100.00
7052;BME280;3567;52.444;13.556;2022-12-07T10:03:34;100575.31;;;2.78;100.00
7052;BME280;3567;52.444;13.556;2022-12-07T10:06:00;100580.06;;;2.83;100.00
7052;BME280;3567;52.444;13.556;2022-12-07T10:08:26;100586.59;;;2.87;100.00
7052;BME280;3567;52.444;13.556;2022-12-07T10:10:54;100580.06;;;2.83;100.00
7052;BME280;3567;52.444;13.556;2022-12-07T10:13:41;100581.69;;;2.84;100.00
7052;BME280;3567;52.444;13.556;2022-12-07T10:19:18;100585.16;;;2.84;100.00
7052;BME280;3567;52.444;13.556;2022-12-07T10:22:09;100588.81;;;2.83;100.00
7052;BME280;3567;52.444;13.556;2022-12-07T10:24:35;100576.22;;;2.85;100.00
7052;BME280;3567;52.444;13.556;2022-12-07T10:27:02;100586.81;;;2.85;100.00
7052;BME280;3567;52.444;13.556;2022-12-07T10:29:37;100583.34;;;2.85;100.00
7052;BME280;3567;52.444;13.556;2022-12-07T10:32:06;100587.63;;;2.86;100.00
7052;BME280;3567;52.444;13.556;2022-12-07T10:34:34;100580.97;;;2.90;100.00
7052;BME280;3567;52.444;13.556;2022-12-07T10:39:48;100585.81;;;3.01;100.00
7052;BME280;3567;52.444;13.556;2022-12-07T10:42:24;100579.16;;;3.05;100.00
7052;BME280;3567;52.444;13.556;2022-12-07T10:47:33;100586.06;;;3.06;100.00
7052;BME280;3567;52.444;13.556;2022-12-07T11:01:54;100575.16;;;3.46;100.00
7052;BME280;3567;52.444;13.556;2022-12-07T11:05:27;100576.44;;;3.35;100.00
7052;BME280;3567;52.444;13.556;2022-12-07T11:21:19;100566.94;;;3.40;100.00
7052;BME280;3567;52.444;13.556;2022-12-07T11:27:11;100566.41;;;3.45;100.00
7052;BME280;3567;52.444;13.556;2022-12-07T11:32:17;100564.66;;;3.52;100.00
7052;BME280;3567;52.444;13.556;2022-12-07T11:35:11;100559.72;;;3.49;100.00
7052;BME280;3567;52.444;13.556;2022-12-07T11:37:41;100549.75;;;3.51;100.00
7052;BME280;3567;52.444;13.556;2022-12-07T11:40:19;100549.41;;;3.54;100.00
7052;BME280;3567;52.444;13.556;2022-12-07T11:42:51;100549.03;;;3.57;100.00
7052;BME280;3567;52.444;13.556;2022-12-07T11:45:23;100549.66;;;3.59;100.00
7052;BME280;3567;52.444;13.556;2022-12-07T11:48:02;100547.63;;;3.61;100.00
7052;BME280;3567;52.444;13.556;2022-12-07T11:50:42;100547.28;;;3.64;100.00
7052;BME280;3567;52.444;13.556;2022-12-07T11:55:56;100541.09;;;3.79;100.00
7052;BME280;3567;52.444;13.556;2022-12-07T12:01:38;100547.97;;;3.73;100.00
7052;BME280;3567;52.444;13.556;2022-12-07T12:06:37;100550.94;;;3.63;100.00
7052;BME280;3567;52.444;13.556;2022-12-07T12:14:53;100540.41;;;3.70;100.00
7052;BME280;3567;52.444;13.556;2022-12-07T12:17:49;100537.13;;;3.68;100.00
7052;BME280;3567;52.444;13.556;2022-12-07T12:21:20;100535.72;;;3.72;100.00
7052;BME280;3567;52.444;13.556;2022-12-07T12:23:17;100517.00;;;3.74;100.00
7052;BME280;3567;52.444;13.556;2022-12-07T12:25:57;100531.38;;;3.86;100.00
7052;BME280;3567;52.444;13.556;2022-12-07T12:29:00;100527.53;;;3.88;100.00
7052;BME280;3567;52.444;13.556;2022-12-07T12:34:04;100527.25;;;3.83;100.00
7052;BME280;3567;52.444;13.556;2022-12-07T12:44:01;100521.78;;;3.85;100.00
7052;BME280;3567;52.444;13.556;2022-12-07T12:51:42;100518.13;;;3.86;100.00
7052;BME280;3567;52.444;13.556;2022-12-07T12:54:15;100516.59;;;3.77;100.00
7052;BME280;3567;52.444;13.556;2022-12-07T12:57:12;100518.63;;;3.75;100.00
7052;BME280;3567;52.444;13.556;2022-12-07T13:02:37;100516.00;;;3.75;100.00
7052;BME280;3567;52.444;13.556;2022-12-07T13:05:24;100517.63;;;3.76;100.00
7052;BME280;3567;52.444;13.556;2022-12-07T13:18:00;100517.13;;;3.87;100.00
7052;BME280;3567;52.444;13.556;2022-12-07T13:23:16;100506.78;;;3.92;100.00
7052;BME280;3567;52.444;13.556;2022-12-07T13:25:51;100510.88;;;3.94;100.00
7052;BME280;3567;52.444;13.556;2022-12-07T13:28:21;100511.13;;;4.00;100.00
7052;BME280;3567;52.444;13.556;2022-12-07T13:34:38;100504.97;;;3.99;100.00
7052;BME280;3567;52.444;13.556;2022-12-07T13:39:49;100498.69;;;4.00;100.00
7052;BME280;3567;52.444;13.556;2022-12-07T13:42:25;100492.59;;;4.00;100.00
7052;BME280;3567;52.444;13.556;2022-12-07T13:44:51;100505.19;;;3.98;100.00
7052;BME280;3567;52.444;13.556;2022-12-07T13:49:56;100503.91;;;3.93;100.00
7052;BME280;3567;52.444;13.556;2022-12-07T13:52:27;100504.31;;;3.90;100.00
7052;BME280;3567;52.444;13.556;2022-12-07T13:57:21;100508.81;;;3.90;100.00
7052;BME280;3567;52.444;13.556;2022-12-07T13:59:47;100510.44;;;3.91;100.00
7052;BME280;3567;52.444;13.556;2022-12-07T14:02:21;100509.63;;;3.90;100.00
7052;BME280;3567;52.444;13.556;2022-12-07T14:04:48;100507.53;;;3.86;100.00
7052;BME280;3567;52.444;13.556;2022-12-07T14:07:19;100512.63;;;3.87;100.00
7052;BME280;3567;52.444;13.556;2022-12-07T14:10:03;100509.56;;;3.84;100.00
7052;BME280;3567;52.444;13.556;2022-12-07T14:12:30;100514.88;;;3.84;100.00
7052;BME280;3567;52.444;13.556;2022-12-07T14:14:57;100513.41;;;3.81;100.00
7052;BME280;3567;52.444;13.556;2022-12-07T14:17:24;100513.19;;;3.83;100.00
7052;BME280;3567;52.444;13.556;2022-12-07T14:19:55;100522.72;;;3.77;100.00
7052;BME280;3567;52.444;13.556;2022-12-07T14:22:23;100508.25;;;3.73;100.00
7052;BME280;3567;52.444;13.556;2022-12-07T14:24:49;100506.56;;;3.72;100.00
7052;BME280;3567;52.444;13.556;2022-12-07T14:27:22;100515.59;;;3.78;100.00
7052;BME280;3567;52.444;13.556;2022-12-07T14:29:48;100503.75;;;3.74;100.00
7052;BME280;3567;52.444;13.556;2022-12-07T14:32:29;100508.66;;;3.77;100.00
7052;BME280;3567;52.444;13.556;2022-12-07T14:37:28;100517.19;;;3.72;100.00
7052;BME280;3567;52.444;13.556;2022-12-07T14:39:53;100510.81;;;3.66;100.00
7052;BME280;3567;52.444;13.556;2022-12-07T14:42:19;100513.84;;;3.63;100.00
7052;BME280;3567;52.444;13.556;2022-12-07T14:44:45;100503.63;;;3.60;100.00
7052;BME280;3567;52.444;13.556;2022-12-07T14:47:11;100499.97;;;3.61;100.00
7052;BME280;3567;52.444;13.556;2022-12-07T14:49:36;100495.06;;;3.58;100.00
7052;BME280;3567;52.444;13.556;2022-12-07T14:52:02;100496.63;;;3.53;100.00
7052;BME280;3567;52.444;13.556;2022-12-07T14:54:31;100492.72;;;3.49;100.00
7052;BME280;3567;52.444;13.556;2022-12-07T14:56:56;100489.59;;;3.45;100.00
7052;BME280;3567;52.444;13.556;2022-12-07T14:59:22;100487.34;;;3.42;100.00
7052;BME280;3567;52.444;13.556;2022-12-07T15:01:47;100488.53;;;3.39;100.00
7052;BME280;3567;52.444;13.556;2022-12-07T15:04:12;100482.81;;;3.36;100.00
7052;BME280;3567;52.444;13.556;2022-12-07T15:06:38;100491.47;;;3.30;100.00
7052;BME280;3567;52.444;13.556;2022-12-07T15:09:03;100492.13;;;3.32;100.00
7052;BME280;3567;52.444;13.556;2022-12-07T15:11:29;100493.97;;;3.31;100.00
7052;BME280;3567;52.444;13.556;2022-12-07T15:13:54;100493.97;;;3.31;100.00
7052;BME280;3567;52.444;13.556;2022-12-07T15:16:38;100485.56;;;3.28;100.00